« 懐古:第7高射特科連隊創隊二十周年静内駐屯地創設三十七周年記念行事他 静内駐屯地他 2001/7/22 sun | トップページ | 大地 新千歳空港 2019/5/25 sat »

2019/07/10

定点 富山空港 2019/7/10 wed

久しぶりに朝から青空広がる夏の日。

RJNT 092300Z VRB02KT 9999 FEW015 24/21 Q1009

20190710_rjnt_00ja89an

今日は、高い

20190710_rjnt_01ja89an

20190710_rjnt_02ja89an

ANA313 RJTT-RJNT JA89AN B737-8AL

RJNT 100000Z 35003KT 290V050 9999 FEW015 25/19 Q1008

20190710_rjnt_03ja6768

防災さんは一活動して休憩中

20190710_rjnt_04ja16ac

珍客万来

20190710_rjnt_05ja16ac

JA16AC Dassault Falcon 2000EX SAK

20190710_rjnt_06ja16ac

YOUはTOYAMAに何しにきたの~?

20190710_rjnt_07ja89an

20190710_rjnt_08ja89an

ANA316 RJNT-RJTT JA89AN B737-8AL

20190710_rjnt_09ja89an

ANA ANA ANA

20190710_rjnt_10ja6768

JA6768 B412EP 富山県消防防災

RJNT 100100Z 36007KT 9999 FEW020 27/20 Q1008

20190710_rjnt_11ja54an

ANA315 RJTT-RJNT JA54AN B737-881

20190710_rjnt_12ja6768

JA6768 なにやら写真撮影して帰ってきました。

20190710_rjnt_13b9911

CSN613 ZYTL-RJNT B-9911 A320-232

RJNT 100200Z 36007KT 9999 FEW020 27/20 Q1008

20190710_rjnt_14ja16ac

一時間半の滞在で出発

20190710_rjnt_15ja16ac

JA16AC F2TX SAK

20190710_rjnt_16ja16ac

喧しいけど、素早い離陸

20190710_rjnt_17ja16ac

夕方、また来るそうです。

20190710_rjnt_18ja10ym

JA10YM A109SP SAK 富山県ドクターヘリ 飛騨ミッション

20190710_rjnt_19ja6516

JA6516 AS350B3 AKF

20190710_rjnt_20ja54an

富山県下は「14歳の挑戦」実施中

20190710_rjnt_21ja54an

空港職員も経験できる

20190710_rjnt_22ja54an

20190710_rjnt_23ja54an

ANA1181 RJNT-RJCC JA54AN B737-881

20190710_rjnt_24b9911

20190710_rjnt_25b9911

CSN614 RJNT-ZYTL B-9911 A320-232

20190710_rjnt_26b9911

堤防では草刈実施中 オワもそこで見たい

RJNT 100300Z 36009KT 9999 FEW020 28/19 Q1008

20190710_rjnt_27ja6516

JA6516 AS350B3 AKF

20190710_rjnt_28ja6507

JA6507 AS350B3 AKF

RJNT 100400Z 36009KT 9999 FEW020 29/18 Q1008

20190710_rjnt_29ja6516

JA6516

20190710_rjnt_30ja6516

朝日さんは電力のお仕事で忙しい

20190710_rjnt_31fcv

シャワータイムが終って、場周マラソン

20190710_rjnt_32ja6768

午後の訓練へ

20190710_rjnt_33ja6768

のりこみぃぃ

20190710_rjnt_34ja6768

JA6768

本日は、待ち人来たずでしたが、静岡さんに助けられました。

 

|

« 懐古:第7高射特科連隊創隊二十周年静内駐屯地創設三十七周年記念行事他 静内駐屯地他 2001/7/22 sun | トップページ | 大地 新千歳空港 2019/5/25 sat »

富山空港」カテゴリの記事

コメント

コメントを書く



(ウェブ上には掲載しません)


コメントは記事投稿者が公開するまで表示されません。



« 懐古:第7高射特科連隊創隊二十周年静内駐屯地創設三十七周年記念行事他 静内駐屯地他 2001/7/22 sun | トップページ | 大地 新千歳空港 2019/5/25 sat »